Archival Weather

NSFA McMurdo Sound

NSFA McMurdo Sound, Antarctica (NZCM)

Report from: Thursday, September 21, 2023 2:27 AM UTC
Current time: Saturday, February 24, 2024 4:21 PM UTC

Current weather – Weather history – Daily summaries
Weather forecast

Present weatherLight snow
Temperature-7.7°C (18.1°F)
Wind chill-12.2°C (10.0°F)
Dew point-11.3°C (11.7°F)
Winds 5 kts (2.6 m/s, 5.8 mph) Northeast (50°)
Visibility6.2 mi. (10 km)
Clouds Scattered clouds 3,400 ft. (1,036 m)
Ceiling: Broken clouds 4,900 ft. (1,494 m)
Broken clouds 6,000 ft. (1,829 m)
Overcast 8,000 ft. (2,438 m)
Altimeter28.58 in.Hg (968 mB)
Precip. events Snow began 2:07 AM
Snow ended 2:21 AM
Snow began 2:27 AM
Relative humidity75 %
Density altitude-4,631 ft. (-1,412 m)
Sea-level pressure106.8 kPa (1068 mB, 31.54 in.Hg)
Remarks Fully automated report
Special weather observation
Automated weather observing station with precipitation discriminator
Flight conditions Visual Meteorological Conditions
Raw dataSPECI NZCM 210227Z AUTO 05005KT 9999 -SN SCT034 BKN049 BKN060 OVC080 M08/M11 A2858 RMK AO2 SNB0207E0221B0227 SLP682 T10771113
An error has occurred. This application may no longer respond until reloaded. Reload 🗙